Time;durP1;ratioP1;P1;durP2;ratioP2;P2;SDS_P1;SDS_P2;PMS_P1;PMS_P2;Temp;Humidity;BMP_temperature;BMP_pressure;BME280_temperature;BME280_humidity;BME280_pressure;Samples;Min_cycle;Max_cycle;Signal;HPM_P1;HPM_P2
2021/12/23 00:00:57;;;;;;;11.38;5.55;;;;;;;-16.07;68.19;99495.41;4889164;29;20092;-56
2021/12/23 00:03:23;;;;;;;14.63;6.15;;;;;;;-16.16;67.57;99510.41;4890011;29;20206;-56
2021/12/23 00:05:48;;;;;;;11.88;5.05;;;;;;;-16.13;68.39;99501.47;4887342;29;20029;-57
2021/12/23 00:08:14;;;;;;;12.05;5.28;;;;;;;-16.14;67.88;99493.19;4889203;29;20044;-56
2021/12/23 00:10:40;;;;;;;10.57;4.95;;;;;;;-16.01;68.25;99502.47;4889141;29;20036;-56
2021/12/23 00:13:06;;;;;;;11.90;4.82;;;;;;;-15.98;67.34;99478.78;4889821;29;20057;-56
2021/12/23 00:15:39;;;;;;;9.35;4.80;;;;;;;-15.87;67.07;99492.03;4890010;29;20332;-54
2021/12/23 00:25:50;;;;;;;8.45;4.50;;;;;;;-15.92;68.28;99461.03;4887906;29;20080;-55
2021/12/23 00:28:16;;;;;;;10.05;4.63;;;;;;;-16.00;67.58;99460.44;4888429;29;20033;-56
2021/12/23 00:30:42;;;;;;;9.75;4.85;;;;;;;-15.90;67.98;99447.16;4889975;29;20087;-57
2021/12/23 00:33:07;;;;;;;12.48;4.93;;;;;;;-15.76;69.03;99463.06;4888388;29;20313;-55
2021/12/23 00:35:33;;;;;;;7.97;4.45;;;;;;;-15.77;68.47;99461.34;4888803;29;20321;-55
2021/12/23 00:38:00;;;;;;;8.65;4.28;;;;;;;-15.85;68.19;99454.94;4888597;29;20119;-55
2021/12/23 00:40:26;;;;;;;9.32;5.10;;;;;;;-15.76;68.86;99463.06;4888060;29;20055;-55
2021/12/23 00:42:52;;;;;;;8.43;4.75;;;;;;;-15.76;69.12;99459.72;4888384;29;20317;-55
2021/12/23 00:45:18;;;;;;;10.18;5.15;;;;;;;-15.72;69.18;99467.53;4889345;29;20258;-56
2021/12/23 00:47:43;;;;;;;7.85;4.50;;;;;;;-15.68;69.92;99464.53;4896108;29;20356;-56
2021/12/23 00:50:09;;;;;;;7.25;3.85;;;;;;;-15.52;68.46;99469.06;4896826;29;20028;-57
2021/12/23 00:52:37;;;;;;;11.95;4.32;;;;;;;-15.61;68.00;99465.03;4887247;29;20039;-56
2021/12/23 00:55:08;;;;;;;10.98;4.15;;;;;;;-15.59;69.33;99454.47;4888319;29;20302;-56
2021/12/23 00:57:38;;;;;;;6.25;3.80;;;;;;;-15.58;69.44;99457.81;4889541;29;20058;-57
2021/12/23 01:00:07;;;;;;;7.07;4.27;;;;;;;-15.52;69.33;99470.69;4888545;29;20055;-57
2021/12/23 01:02:33;;;;;;;11.13;4.80;;;;;;;-15.41;69.39;99466.56;4904935;29;20787;-57
2021/12/23 01:04:59;;;;;;;11.27;4.97;;;;;;;-15.32;69.18;99465.66;4889532;29;20036;-56
2021/12/23 01:07:25;;;;;;;10.90;4.10;;;;;;;-15.36;69.19;99465.28;4889201;29;20033;-56
2021/12/23 01:09:51;;;;;;;10.48;3.88;;;;;;;-15.38;69.68;99461.84;4889411;29;20033;-57
2021/12/23 01:12:22;;;;;;;10.10;4.00;;;;;;;-15.25;69.79;99466.13;4889444;29;20029;-58
2021/12/23 01:14:58;;;;;;;6.63;3.20;;;;;;;-15.16;69.93;99467.69;4896798;29;20043;-58
2021/12/23 01:19:55;;;;;;;7.93;3.75;;;;;;;-15.07;70.24;99455.13;4888100;29;20035;-57
2021/12/23 01:22:21;;;;;;;7.10;3.47;;;;;;;-15.10;70.09;99462.34;4902751;29;20043;-55
2021/12/23 01:24:48;;;;;;;8.30;3.63;;;;;;;-15.07;69.81;99447.66;4888339;29;20049;-55
2021/12/23 01:27:14;;;;;;;5.90;3.28;;;;;;;-15.02;70.37;99456.34;4888837;29;20041;-57
2021/12/23 01:29:40;;;;;;;6.40;3.25;;;;;;;-14.96;69.76;99464.25;4888253;29;20033;-57
2021/12/23 01:32:07;;;;;;;7.45;4.05;;;;;;;-14.99;70.91;99455.69;4889209;29;20029;-56
2021/12/23 01:34:34;;;;;;;6.05;3.28;;;;;;;-15.02;71.29;99441.44;4886780;29;20044;-55
2021/12/23 01:37:02;;;;;;;5.80;3.30;;;;;;;-14.78;70.98;99486.25;4889065;29;20065;-56
2021/12/23 01:39:27;;;;;;;9.18;3.92;;;;;;;-14.77;69.24;99471.44;4888981;29;20309;-57
2021/12/23 01:41:53;;;;;;;5.13;3.00;;;;;;;-14.80;70.50;99456.31;4888888;29;20056;-56
2021/12/23 01:44:18;;;;;;;7.20;3.30;;;;;;;-14.70;70.04;99457.03;4888831;29;20033;-57
2021/12/23 01:46:44;;;;;;;5.55;3.60;;;;;;;-14.65;68.88;99466.53;4887655;29;20025;-56
2021/12/23 01:49:10;;;;;;;6.28;3.47;;;;;;;-14.61;69.53;99470.94;4889024;29;20313;-56
2021/12/23 01:51:35;;;;;;;7.78;3.35;;;;;;;-14.63;71.39;99461.69;4891806;29;20237;-56
2021/12/23 01:54:01;;;;;;;7.20;3.65;;;;;;;-14.65;70.57;99444.19;4890502;29;20036;-58
2021/12/23 01:56:27;;;;;;;6.03;3.40;;;;;;;-14.61;70.01;99456.03;4891547;29;20096;-56
2021/12/23 01:58:53;;;;;;;6.85;3.13;;;;;;;-14.47;69.24;99438.78;4890351;29;20028;-57
2021/12/23 02:01:19;;;;;;;8.07;3.53;;;;;;;-14.49;69.10;99437.78;4892230;29;20213;-56
2021/12/23 02:03:45;;;;;;;5.65;3.13;;;;;;;-14.34;69.12;99456.31;4891224;29;20112;-54
2021/12/23 02:06:10;;;;;;;5.97;3.50;;;;;;;-14.33;69.30;99443.16;4892367;29;20077;-56
2021/12/23 02:08:37;;;;;;;7.43;3.65;;;;;;;-14.26;69.26;99444.47;4892199;29;20033;-57
2021/12/23 02:11:05;;;;;;;5.72;3.17;;;;;;;-14.61;69.58;99391.41;4892179;29;20309;-56
2021/12/23 02:13:51;;;;;;;7.10;3.38;;;;;;;-14.21;68.58;99438.19;4890226;29;20033;-56
2021/12/23 02:16:16;;;;;;;8.77;4.15;;;;;;;-14.17;70.30;99439.28;4892153;29;20056;-56
2021/12/23 02:18:42;;;;;;;4.93;3.15;;;;;;;-14.17;70.47;99436.78;4892191;29;20202;-56
2021/12/23 02:21:08;;;;;;;7.50;3.80;;;;;;;-14.22;69.37;99436.47;4890274;29;20029;-55
2021/12/23 02:23:34;;;;;;;6.18;3.90;;;;;;;-14.27;70.14;99426.16;4891276;29;20052;-56
2021/12/23 02:26:00;;;;;;;6.95;3.78;;;;;;;-14.17;69.05;99429.34;4902945;29;20372;-59
2021/12/23 02:28:27;;;;;;;6.03;4.00;;;;;;;-14.24;69.70;99428.03;4891838;29;20036;-57
2021/12/23 02:30:53;;;;;;;6.85;3.88;;;;;;;-14.17;70.93;99432.69;4889292;29;20077;-56
2021/12/23 02:33:24;;;;;;;7.38;3.63;;;;;;;-14.11;69.82;99427.28;4888237;29;20186;-57
2021/12/23 02:35:52;;;;;;;6.53;3.95;;;;;;;-14.14;69.89;99415.47;4890515;29;20029;-57
2021/12/23 02:38:18;;;;;;;6.05;3.80;;;;;;;-14.11;69.07;99420.66;4891675;29;20029;-58
2021/12/23 02:40:44;;;;;;;5.82;3.67;;;;;;;-14.02;70.80;99427.06;4894157;29;20032;-57
2021/12/23 02:43:18;;;;;;;9.55;3.80;;;;;;;-14.01;70.94;99447.06;4902239;29;20033;-57
2021/12/23 02:45:46;;;;;;;9.63;4.32;;;;;;;-14.41;70.99;99354.69;4890514;29;20040;-58
2021/12/23 02:48:17;;;;;;;6.65;3.63;;;;;;;-13.93;71.60;99427.72;4890359;29;20040;-57
2021/12/23 02:50:47;;;;;;;6.15;3.65;;;;;;;-14.38;71.28;99347.47;4903992;29;20060;-58
2021/12/23 02:53:12;;;;;;;7.03;3.95;;;;;;;-13.84;71.96;99438.31;4889801;29;20348;-57
2021/12/23 02:55:38;;;;;;;10.07;4.15;;;;;;;-13.88;71.44;99431.38;4891348;29;20045;-58
2021/12/23 02:58:05;;;;;;;7.00;4.03;;;;;;;-13.79;70.53;99429.56;4891234;29;20344;-57
2021/12/23 03:00:31;;;;;;;8.45;4.00;;;;;;;-13.91;71.49;99417.13;4891154;29;20028;-56
2021/12/23 03:02:57;;;;;;;6.78;3.92;;;;;;;-13.75;71.31;99430.63;4890748;29;20032;-57
2021/12/23 03:05:23;;;;;;;7.07;4.05;;;;;;;-13.73;70.01;99431.63;4891044;29;20207;-57
2021/12/23 03:07:48;;;;;;;5.20;3.50;;;;;;;-13.71;70.96;99420.13;4890125;29;20045;-55
2021/12/23 03:10:15;;;;;;;6.28;3.75;;;;;;;-13.71;72.52;99422.63;4890063;29;20028;-55
2021/12/23 03:12:41;;;;;;;6.80;3.78;;;;;;;-13.77;71.13;99408.13;4889804;29;20027;-56
2021/12/23 03:15:07;;;;;;;6.47;3.97;;;;;;;-13.61;71.57;99425.03;4889947;29;20376;-57
2021/12/23 03:17:34;;;;;;;8.40;4.30;;;;;;;-13.68;72.34;99407.91;4890476;29;20187;-58
2021/12/23 03:20:00;;;;;;;8.20;4.28;;;;;;;-13.63;70.71;99393.31;4890977;29;20036;-57
2021/12/23 03:22:26;;;;;;;7.10;3.90;;;;;;;-13.47;71.53;99408.53;4889878;29;20036;-56
2021/12/23 03:24:51;;;;;;;8.40;4.18;;;;;;;-13.52;71.47;99399.00;4890606;29;20237;-55
2021/12/23 03:27:17;;;;;;;8.50;4.35;;;;;;;-13.44;72.45;99408.72;4890176;29;20041;-56
2021/12/23 03:29:43;;;;;;;8.60;3.90;;;;;;;-13.42;72.42;99408.88;4890759;29;20214;-56
2021/12/23 03:32:08;;;;;;;9.10;4.35;;;;;;;-13.45;71.46;99407.03;4890608;29;20021;-56
2021/12/23 03:34:34;;;;;;;10.32;4.45;;;;;;;-13.31;73.09;99404.56;4890004;29;20060;-56
2021/12/23 03:36:59;;;;;;;10.05;4.47;;;;;;;-13.23;71.57;99405.97;4904608;29;20412;-56
2021/12/23 03:39:25;;;;;;;6.80;4.32;;;;;;;-13.24;71.86;99406.72;4889477;29;20037;-56
2021/12/23 03:41:51;;;;;;;7.88;4.50;;;;;;;-13.32;72.00;99402.84;4888406;29;20222;-56
2021/12/23 03:44:16;;;;;;;7.30;4.20;;;;;;;-13.31;72.63;99390.47;4888202;29;20300;-56
2021/12/23 03:46:42;;;;;;;11.00;4.82;;;;;;;-13.28;71.90;99379.88;4889185;29;20033;-55
2021/12/23 03:49:08;;;;;;;7.97;4.20;;;;;;;-13.16;71.88;99377.34;4890398;29;20036;-56
2021/12/23 03:51:35;;;;;;;6.55;4.03;;;;;;;-13.06;71.76;99392.16;4890164;29;20036;-55
2021/12/23 03:54:01;;;;;;;8.50;4.57;;;;;;;-13.10;72.73;99371.13;4889215;29;20076;-56
2021/12/23 03:56:27;;;;;;;9.43;4.70;;;;;;;-13.06;72.25;99393.00;4903517;29;20049;-55
2021/12/23 03:58:54;;;;;;;4.75;3.85;;;;;;;-13.03;72.60;99378.25;4889201;29;20101;-55
2021/12/23 04:01:22;;;;;;;6.43;3.92;;;;;;;-13.10;73.30;99370.28;4888952;29;20064;-55
2021/12/23 04:03:50;;;;;;;8.35;4.55;;;;;;;-13.52;72.25;99305.28;4889062;29;20092;-56
2021/12/23 04:06:16;;;;;;;7.50;4.40;;;;;;;-13.04;72.77;99383.13;4872846;29;20217;-55
2021/12/23 04:08:41;;;;;;;7.07;3.95;;;;;;;-12.94;72.14;99384.63;4888426;29;20029;-55
2021/12/23 04:11:07;;;;;;;6.07;3.95;;;;;;;-13.03;72.87;99387.38;4888435;29;20044;-56
2021/12/23 04:13:32;;;;;;;7.63;4.13;;;;;;;-13.03;72.88;99380.75;4887450;29;20028;-54
2021/12/23 04:15:58;;;;;;;8.00;3.97;;;;;;;-12.95;73.85;99373.81;4888061;29;20033;-55
2021/12/23 04:18:24;;;;;;;8.13;3.97;;;;;;;-12.92;73.00;99375.63;4903394;29;20032;-56
2021/12/23 04:20:55;;;;;;;10.15;5.07;;;;;;;-12.93;73.25;99373.91;4886251;29;20029;-55
2021/12/23 04:23:29;;;;;;;6.68;4.00;;;;;;;-12.91;73.90;99400.66;4887276;29;20104;-56
2021/12/23 04:25:55;;;;;;;7.60;4.07;;;;;;;-12.82;73.12;99375.47;4887725;29;20036;-56
2021/12/23 04:28:22;;;;;;;8.15;5.10;;;;;;;-12.83;73.33;99380.38;4887871;29;20025;-57
2021/12/23 04:30:49;;;;;;;9.90;4.68;;;;;;;-12.77;73.23;99381.59;4888546;29;20069;-55
2021/12/23 04:33:14;;;;;;;6.88;4.30;;;;;;;-12.81;72.86;99384.69;4887169;29;20028;-57
2021/12/23 04:35:40;;;;;;;7.63;4.93;;;;;;;-12.72;73.71;99376.94;4888442;29;20029;-57
2021/12/23 04:38:06;;;;;;;7.43;4.45;;;;;;;-12.68;73.66;99381.38;4902713;29;20051;-56
2021/12/23 04:40:34;;;;;;;8.48;5.15;;;;;;;-12.80;73.85;99385.53;4887884;29;20040;-57
2021/12/23 04:43:08;;;;;;;9.18;4.50;;;;;;;-12.67;73.88;99396.44;4898861;29;20274;-57
2021/12/23 04:45:34;;;;;;;12.93;4.90;;;;;;;-12.74;73.71;99386.81;4898302;29;20033;-55
2021/12/23 04:48:00;;;;;;;9.30;4.60;;;;;;;-12.55;74.65;99405.47;4888127;29;20225;-56
2021/12/23 04:50:26;;;;;;;7.88;4.20;;;;;;;-12.62;74.17;99401.72;4888678;29;20029;-56
2021/12/23 04:52:53;;;;;;;10.25;5.10;;;;;;;-12.53;74.11;99403.94;4888195;29;20089;-56
2021/12/23 04:55:19;;;;;;;8.32;4.43;;;;;;;-12.58;74.43;99391.19;4889230;29;20029;-57
2021/12/23 04:57:44;;;;;;;8.18;4.40;;;;;;;-12.50;73.88;99401.63;4903112;29;20073;-57
2021/12/23 05:00:17;;;;;;;9.20;5.07;;;;;;;-12.50;74.17;99404.13;4888188;29;20044;-57
2021/12/23 05:02:43;;;;;;;7.88;4.90;;;;;;;-12.50;74.05;99400.03;4888433;29;20049;-56
2021/12/23 05:05:09;;;;;;;8.55;4.80;;;;;;;-12.41;74.13;99394.75;4887715;29;20294;-57
2021/12/23 05:07:35;;;;;;;7.97;4.50;;;;;;;-12.55;74.31;99400.50;4889207;29;20043;-56
2021/12/23 05:10:01;;;;;;;6.60;4.30;;;;;;;-12.48;75.00;99390.16;4887805;29;20037;-57
2021/12/23 05:12:27;;;;;;;7.13;4.78;;;;;;;-12.39;74.49;99405.69;4889324;29;20213;-56
2021/12/23 05:14:52;;;;;;;9.35;4.95;;;;;;;-12.34;73.93;99410.97;4889266;29;20469;-55
2021/12/23 05:17:18;;;;;;;8.77;5.40;;;;;;;-12.36;74.14;99420.84;4888847;29;20132;-56
2021/12/23 05:19:43;;;;;;;10.05;5.05;;;;;;;-12.36;74.47;99410.88;4888880;29;20029;-55
2021/12/23 05:22:09;;;;;;;11.23;5.55;;;;;;;-12.32;74.13;99409.47;4887831;29;20033;-56
2021/12/23 05:24:35;;;;;;;6.68;4.82;;;;;;;-12.39;74.76;99410.69;4887908;29;20312;-56
2021/12/23 05:27:00;;;;;;;11.52;5.75;;;;;;;-12.32;74.06;99406.97;4887715;29;20397;-55
2021/12/23 05:29:26;;;;;;;9.15;5.10;;;;;;;-12.26;74.27;99402.34;4892978;29;20044;-56
2021/12/23 05:31:52;;;;;;;8.70;5.15;;;;;;;-12.25;73.92;99405.72;4892336;29;20222;-55
2021/12/23 05:34:18;;;;;;;9.18;5.20;;;;;;;-12.23;74.09;99406.69;4889943;29;20031;-57
2021/12/23 05:36:43;;;;;;;11.43;5.70;;;;;;;-12.19;74.40;99413.59;4875658;29;20028;-56
2021/12/23 05:39:09;;;;;;;8.13;4.90;;;;;;;-12.22;74.06;99405.94;4891178;29;20025;-57
2021/12/23 05:41:35;;;;;;;8.57;4.80;;;;;;;-12.25;73.89;99395.75;4891237;29;20036;-57
2021/12/23 05:44:02;;;;;;;9.00;4.60;;;;;;;-12.18;74.62;99421.19;4891215;29;20042;-58
2021/12/23 05:46:27;;;;;;;10.27;5.10;;;;;;;-12.15;74.42;99415.53;4892023;29;20051;-57
2021/12/23 05:48:53;;;;;;;8.90;5.07;;;;;;;-12.01;74.94;99422.25;4891418;29;20328;-59
2021/12/23 05:51:19;;;;;;;9.65;4.90;;;;;;;-12.00;73.93;99413.13;4889197;29;20029;-57
2021/12/23 05:53:44;;;;;;;8.90;4.68;;;;;;;-11.93;74.25;99410.22;4886845;29;20028;-57
2021/12/23 05:56:10;;;;;;;7.65;4.85;;;;;;;-11.96;74.16;99407.56;4890585;29;20032;-56
2021/12/23 05:58:36;;;;;;;11.23;5.63;;;;;;;-11.78;74.31;99422.81;4889802;29;20037;-56
2021/12/23 06:01:01;;;;;;;13.98;5.05;;;;;;;-11.74;73.87;99416.38;4890631;29;20095;-57
2021/12/23 06:03:27;;;;;;;11.60;4.70;;;;;;;-11.68;73.16;99430.09;4887711;29;20300;-57
2021/12/23 06:05:53;;;;;;;11.50;5.45;;;;;;;-11.77;74.22;99424.56;4890668;29;20039;-56
2021/12/23 06:08:19;;;;;;;14.40;6.70;;;;;;;-11.61;74.46;99438.84;4890663;29;20367;-56
2021/12/23 06:10:44;;;;;;;11.73;6.03;;;;;;;-11.61;73.99;99436.34;4894992;29;20041;-56
2021/12/23 06:13:10;;;;;;;9.32;5.65;;;;;;;-11.59;73.89;99431.47;4913441;29;20092;-57
2021/12/23 06:15:36;;;;;;;8.95;5.18;;;;;;;-11.62;73.31;99422.97;4894021;29;20060;-56
2021/12/23 06:18:02;;;;;;;8.25;4.78;;;;;;;-11.47;73.95;99419.69;4882127;29;20036;-56
2021/12/23 06:20:27;;;;;;;11.27;5.43;;;;;;;-11.51;73.41;99413.66;4881234;29;20036;-56
2021/12/23 06:22:53;;;;;;;10.80;5.85;;;;;;;-11.51;73.31;99415.31;4899223;29;20032;-55
2021/12/23 06:25:19;;;;;;;10.40;5.25;;;;;;;-11.48;73.53;99428.84;4888671;29;20068;-55
2021/12/23 06:27:45;;;;;;;10.23;5.38;;;;;;;-11.54;73.89;99420.09;4888975;29;20025;-55
2021/12/23 06:30:17;;;;;;;12.88;5.97;;;;;;;-11.38;73.95;99430.28;4890389;29;20053;-55
2021/12/23 06:32:45;;;;;;;12.75;6.00;;;;;;;-11.36;73.60;99421.22;4891301;29;20029;-56
2021/12/23 06:35:11;;;;;;;12.10;6.63;;;;;;;-11.28;74.43;99435.06;4890061;29;20036;-55
2021/12/23 06:37:37;;;;;;;12.07;5.78;;;;;;;-11.28;74.51;99432.56;4890288;29;20072;-55
2021/12/23 06:40:04;;;;;;;9.73;5.47;;;;;;;-11.24;73.90;99427.75;4904978;29;20060;-55
2021/12/23 06:42:29;;;;;;;9.70;6.07;;;;;;;-11.34;73.17;99417.19;4886816;29;20388;-55
2021/12/23 06:44:55;;;;;;;8.45;5.72;;;;;;;-11.11;74.24;99431.09;4889867;29;20066;-55
2021/12/23 06:47:20;;;;;;;9.20;5.63;;;;;;;-11.08;73.46;99415.41;4888933;29;20194;-55
2021/12/23 06:49:47;;;;;;;9.77;5.45;;;;;;;-11.04;73.81;99427.31;4891447;29;20229;-55
2021/12/23 06:52:13;;;;;;;11.55;6.25;;;;;;;-11.03;72.36;99424.06;4889822;29;20258;-55
2021/12/23 06:54:43;;;;;;;10.10;5.80;;;;;;;-11.02;72.45;99427.41;4891129;29;20033;-55
2021/12/23 06:57:09;;;;;;;11.85;5.60;;;;;;;-11.14;73.29;99415.06;4888862;29;20037;-55
2021/12/23 06:59:34;;;;;;;10.98;5.90;;;;;;;-11.09;72.44;99422.81;4891178;29;20321;-56
2021/12/23 07:02:00;;;;;;;10.13;5.88;;;;;;;-11.02;72.95;99423.25;4891143;29;20036;-55
2021/12/23 07:04:30;;;;;;;10.93;5.82;;;;;;;-11.03;72.89;99429.06;4888263;29;20025;-56
2021/12/23 07:07:08;;;;;;;10.63;6.40;;;;;;;-10.93;72.66;99428.81;4888487;29;20103;-56
2021/12/23 07:09:36;;;;;;;9.63;6.10;;;;;;;-10.96;72.34;99401.16;4890892;29;20095;-55
2021/12/23 07:12:03;;;;;;;10.15;5.63;;;;;;;-10.80;73.18;99417.91;4889988;29;20037;-55
2021/12/23 07:14:28;;;;;;;11.15;5.70;;;;;;;-10.71;72.84;99411.72;4891108;29;20066;-56
2021/12/23 07:16:54;;;;;;;13.57;6.68;;;;;;;-10.81;71.33;99400.31;4888695;29;20107;-55
2021/12/23 07:19:19;;;;;;;13.70;6.93;;;;;;;-10.67;72.42;99419.50;4896953;29;20249;-55
2021/12/23 07:21:45;;;;;;;11.88;6.80;;;;;;;-10.65;72.60;99412.94;4891435;29;20056;-55
2021/12/23 07:24:10;;;;;;;11.15;6.72;;;;;;;-10.68;72.68;99405.25;4890034;29;20104;-56
2021/12/23 07:26:36;;;;;;;16.38;7.72;;;;;;;-10.64;73.19;99404.66;4887538;29;20040;-56
2021/12/23 07:29:02;;;;;;;12.73;6.22;;;;;;;-10.49;71.26;99409.66;4887713;29;20029;-56
2021/12/23 07:31:29;;;;;;;11.63;6.55;;;;;;;-10.49;72.58;99413.81;4889052;29;20033;-56
2021/12/23 07:33:54;;;;;;;11.82;6.35;;;;;;;-10.42;72.23;99405.88;4887844;29;20033;-55
2021/12/23 07:36:22;;;;;;;11.05;6.10;;;;;;;-10.36;72.00;99420.38;4887332;29;20052;-56
2021/12/23 07:38:48;;;;;;;11.98;6.25;;;;;;;-10.35;71.79;99415.47;4887563;29;20033;-57
2021/12/23 07:41:15;;;;;;;10.05;6.18;;;;;;;-10.44;72.27;99419.97;4887459;29;20242;-56
2021/12/23 07:46:07;;;;;;;14.65;6.47;;;;;;;-10.34;72.40;99419.72;4887366;29;20100;-56
2021/12/23 07:48:33;;;;;;;11.60;6.32;;;;;;;-10.27;72.49;99415.91;4886343;29;20037;-55
2021/12/23 07:51:04;;;;;;;14.50;6.82;;;;;;;-10.31;70.85;99402.31;4886926;29;20172;-55
2021/12/23 07:53:30;;;;;;;11.70;6.60;;;;;;;-10.20;71.58;99412.06;4887705;29;20451;-55
2021/12/23 07:55:55;;;;;;;11.77;6.40;;;;;;;-10.17;71.61;99408.13;4885601;29;20029;-58
2021/12/23 07:58:21;;;;;;;12.10;7.38;;;;;;;-10.14;70.62;99409.94;4887532;29;20028;-56
2021/12/23 08:00:47;;;;;;;11.70;6.75;;;;;;;-10.12;70.58;99406.72;4887741;29;20028;-57
2021/12/23 08:03:12;;;;;;;15.38;6.68;;;;;;;-10.00;72.25;99405.69;4887106;29;20025;-58
2021/12/23 08:05:38;;;;;;;11.88;6.30;;;;;;;-9.92;70.65;99404.47;4889270;29;20214;-58
2021/12/23 08:08:04;;;;;;;12.75;6.43;;;;;;;-9.83;69.86;99394.09;4888675;29;20045;-57
2021/12/23 08:10:30;;;;;;;11.80;6.93;;;;;;;-9.89;70.03;99390.50;4888422;29;20081;-57
2021/12/23 08:12:56;;;;;;;14.48;7.78;;;;;;;-9.94;71.31;99394.38;4887627;29;20081;-57
2021/12/23 08:15:21;;;;;;;14.52;7.50;;;;;;;-9.84;69.03;99407.41;4888744;29;20274;-57
2021/12/23 08:17:47;;;;;;;13.70;7.45;;;;;;;-9.73;70.52;99406.34;4888249;29;20035;-58
2021/12/23 08:20:15;;;;;;;12.75;7.07;;;;;;;-10.16;69.90;99368.91;4885814;29;20025;-57
2021/12/23 08:22:41;;;;;;;14.07;7.25;;;;;;;-9.87;69.08;99403.09;4888405;29;20032;-57
2021/12/23 08:25:08;;;;;;;12.05;6.65;;;;;;;-9.91;69.51;99412.06;4889374;29;20056;-57
2021/12/23 08:27:34;;;;;;;13.20;6.43;;;;;;;-9.98;70.48;99419.16;4889512;29;20274;-57
2021/12/23 08:30:01;;;;;;;10.60;6.20;;;;;;;-9.96;70.28;99420.97;4888552;29;20031;-57
2021/12/23 08:32:26;;;;;;;12.43;6.28;;;;;;;-9.99;71.63;99408.28;4888423;29;20280;-57
2021/12/23 08:34:52;;;;;;;8.63;5.65;;;;;;;-10.08;69.88;99407.75;4894466;29;20029;-58
2021/12/23 08:37:18;;;;;;;13.68;6.45;;;;;;;-10.01;69.56;99403.97;4888317;29;20037;-57
2021/12/23 08:39:44;;;;;;;12.88;6.65;;;;;;;-10.00;70.81;99404.06;4889534;29;20033;-56
2021/12/23 08:42:10;;;;;;;11.63;6.57;;;;;;;-10.01;69.76;99386.44;4889635;29;20104;-57
2021/12/23 08:44:36;;;;;;;12.05;5.78;;;;;;;-9.76;70.24;99404.53;4888312;29;20269;-57
2021/12/23 08:47:02;;;;;;;11.77;6.18;;;;;;;-9.75;70.25;99397.88;4888234;29;20108;-56
2021/12/23 08:49:28;;;;;;;10.30;5.50;;;;;;;-9.71;67.76;99399.78;4888378;29;20029;-56
2021/12/23 08:51:54;;;;;;;9.07;5.95;;;;;;;-9.66;68.32;99388.38;4884040;29;20029;-58
2021/12/23 08:54:20;;;;;;;12.25;6.35;;;;;;;-9.56;67.20;99400.59;4901579;29;20356;-57
2021/12/23 08:56:46;;;;;;;13.05;6.38;;;;;;;-9.51;68.57;99402.50;4889263;29;20041;-57
2021/12/23 08:59:12;;;;;;;11.63;5.72;;;;;;;-9.45;68.12;99401.16;4889389;29;20036;-58
2021/12/23 09:01:40;;;;;;;9.80;5.28;;;;;;;-9.89;69.00;99339.50;4887221;29;20101;-57
2021/12/23 09:04:06;;;;;;;15.07;5.72;;;;;;;-9.45;68.47;99405.31;4892506;29;20096;-57
2021/12/23 09:06:32;;;;;;;8.27;4.93;;;;;;;-9.50;67.60;99402.59;4902193;29;20068;-57
2021/12/23 09:08:58;;;;;;;13.15;5.40;;;;;;;-9.48;68.54;99397.66;4894030;29;20055;-58
2021/12/23 09:11:25;;;;;;;8.35;4.82;;;;;;;-9.21;67.70;99394.06;4888416;29;20041;-57
2021/12/23 09:13:51;;;;;;;9.30;5.20;;;;;;;-9.05;67.40;99393.25;4888332;29;20028;-57
2021/12/23 09:16:18;;;;;;;8.48;5.03;;;;;;;-9.09;66.07;99372.94;4889054;29;20369;-57
2021/12/23 09:18:44;;;;;;;9.38;4.60;;;;;;;-8.91;65.55;99386.41;4887944;29;20040;-57
2021/12/23 09:21:12;;;;;;;8.43;4.97;;;;;;;-8.87;66.70;99385.78;4884828;29;20050;-57
2021/12/23 09:23:39;;;;;;;8.70;5.30;;;;;;;-9.00;65.53;99380.94;4884988;29;20053;-57
2021/12/23 09:26:09;;;;;;;6.75;4.40;;;;;;;-9.13;65.05;99376.94;4888600;29;20028;-57
2021/12/23 09:34:00;;;;;;;10.25;5.40;;;;;;;-9.14;67.58;99365.19;4893911;29;20225;-58
2021/12/23 09:36:26;;;;;;;10.77;4.63;;;;;;;-9.23;67.15;99370.59;4891284;29;20033;-57
2021/12/23 09:38:52;;;;;;;10.63;4.68;;;;;;;-9.15;68.14;99373.47;4899371;29;20033;-58
2021/12/23 09:41:20;;;;;;;9.85;4.60;;;;;;;-9.15;67.16;99378.50;4888121;29;20066;-58
2021/12/23 09:43:46;;;;;;;7.78;4.38;;;;;;;-9.13;66.16;99374.44;4885596;29;20330;-59
2021/12/23 09:46:15;;;;;;;6.15;4.53;;;;;;;-9.23;66.57;99359.72;4895669;29;20029;-57
2021/12/23 09:48:44;;;;;;;7.53;4.28;;;;;;;-9.31;67.99;99351.78;4887919;29;20045;-57
2021/12/23 09:51:12;;;;;;;6.07;4.25;;;;;;;-9.19;66.56;99371.63;4888694;29;20088;-57
2021/12/23 09:53:43;;;;;;;8.32;4.80;;;;;;;-9.33;66.04;99353.34;4888764;29;20241;-58
2021/12/23 09:56:09;;;;;;;7.65;4.10;;;;;;;-9.35;67.36;99357.41;4886996;29;20029;-58
2021/12/23 09:58:35;;;;;;;6.97;4.20;;;;;;;-9.24;66.61;99373.88;4886747;29;20043;-57
2021/12/23 10:01:02;;;;;;;8.98;4.55;;;;;;;-9.45;68.23;99352.69;4885710;29;20028;-56
2021/12/23 10:03:28;;;;;;;10.13;4.30;;;;;;;-9.27;66.94;99353.66;4901576;29;20040;-56
2021/12/23 10:05:56;;;;;;;7.88;4.28;;;;;;;-9.27;67.73;99353.66;4887369;29;20033;-59
2021/12/23 10:08:22;;;;;;;6.10;4.38;;;;;;;-9.28;66.22;99356.94;4887162;29;20240;-59
2021/12/23 10:10:53;;;;;;;6.63;4.22;;;;;;;-9.33;66.76;99352.47;4887668;29;20033;-59
2021/12/23 10:27:06;;;;;;;9.95;5.15;;;;;;;-9.15;67.24;99355.06;4889943;29;20154;-59
2021/12/23 10:32:47;;;;;;;8.63;4.82;;;;;;;-9.11;67.61;99329.38;4890230;29;20057;-58
2021/12/23 10:38:13;;;;;;;10.30;6.10;;;;;;;-9.40;64.96;99271.94;4891359;29;20032;-57
2021/12/23 10:40:42;;;;;;;9.05;5.25;;;;;;;-8.90;66.36;99369.75;4889579;29;20075;-57
2021/12/23 10:43:11;;;;;;;8.88;4.93;;;;;;;-8.90;66.02;99335.47;4890441;29;20339;-56
2021/12/23 10:45:55;;;;;;;8.00;4.65;;;;;;;-8.97;66.89;99330.94;4889941;29;20106;-58
2021/12/23 10:48:26;;;;;;;11.80;5.25;;;;;;;-8.95;65.55;99336.91;4890308;29;20258;-57
2021/12/23 10:50:59;;;;;;;10.07;4.73;;;;;;;-8.94;67.62;99333.59;4886837;29;20030;-58
2021/12/23 10:59:03;;;;;;;8.02;5.13;;;;;;;-8.91;68.53;99332.88;4888145;29;20037;-57
2021/12/23 11:01:30;;;;;;;8.82;4.72;;;;;;;-9.10;68.82;99338.63;4890194;29;20033;-57
2021/12/23 11:04:04;;;;;;;8.77;4.53;;;;;;;-9.16;68.76;99360.88;4890228;29;20091;-59
2021/12/23 11:06:37;;;;;;;9.60;4.70;;;;;;;-8.96;67.32;99340.19;4888313;29;20077;-59
2021/12/23 11:09:34;;;;;;;9.45;4.38;;;;;;;-9.34;67.74;99275.56;4889840;29;20254;-57
2021/12/23 11:27:21;;;;;;;8.18;4.82;;;;;;;-9.12;69.64;99327.63;4886532;29;20039;-59
2021/12/23 11:29:35;;;;;;;8.85;4.47;;;;;;;-9.16;67.59;99330.78;4825378;29;20111;-58
2021/12/23 11:37:38;;;;;;;7.55;4.25;;;;;;;-9.05;66.77;99319.63;4888478;29;20077;-58
2021/12/23 11:40:12;;;;;;;10.02;4.43;;;;;;;-8.90;68.39;99319.56;4889708;29;20033;-58
2021/12/23 11:45:23;;;;;;;7.18;4.22;;;;;;;-8.92;68.43;99321.13;4886949;29;20068;-59
2021/12/23 11:47:49;;;;;;;6.90;4.10;;;;;;;-9.01;68.97;99306.47;4889497;29;20096;-57
2021/12/23 11:50:22;;;;;;;6.20;3.67;;;;;;;-9.06;67.77;99315.44;4889169;29;20251;-57
2021/12/23 11:52:48;;;;;;;6.20;3.90;;;;;;;-9.13;67.29;99309.22;4890450;29;20033;-59
2021/12/23 11:55:13;;;;;;;5.75;3.70;;;;;;;-9.04;67.24;99316.34;4885956;29;20032;-57
2021/12/23 11:57:41;;;;;;;7.07;4.05;;;;;;;-8.96;68.79;99315.09;4889865;29;20056;-57
2021/12/23 12:00:31;;;;;;;6.72;3.92;;;;;;;-8.86;67.04;99316.44;4889179;29;20029;-58
2021/12/23 12:03:00;;;;;;;5.78;3.67;;;;;;;-8.85;67.57;99334.06;4886462;29;20028;-59
2021/12/23 12:05:25;;;;;;;7.70;4.13;;;;;;;-8.94;67.81;99323.56;4889220;29;20329;-57
2021/12/23 12:08:08;;;;;;;8.43;3.80;;;;;;;-8.85;68.81;99338.19;4889173;29;20029;-58
2021/12/23 12:10:35;;;;;;;8.57;3.88;;;;;;;-8.92;66.15;99321.13;4888065;29;20033;-58
2021/12/23 12:13:04;;;;;;;7.35;3.85;;;;;;;-8.91;68.61;99332.88;4888821;29;20080;-59
2021/12/23 12:15:50;;;;;;;6.65;3.90;;;;;;;-9.21;68.06;99258.69;4889055;29;20146;-59
2021/12/23 12:18:23;;;;;;;6.57;4.28;;;;;;;-8.96;66.50;99309.19;4889994;29;20021;-57
2021/12/23 12:20:58;;;;;;;7.82;4.15;;;;;;;-9.16;66.94;99286.53;4888875;29;20087;-58
2021/12/23 12:23:44;;;;;;;5.70;3.80;;;;;;;-9.02;67.64;99324.81;4887406;29;20241;-57
2021/12/23 12:26:30;;;;;;;8.57;4.65;;;;;;;-9.00;67.02;99305.69;4886582;29;20177;-56
2021/12/23 12:28:56;;;;;;;6.88;4.10;;;;;;;-8.97;68.82;99315.88;4884868;29;20310;-56
2021/12/23 12:31:25;;;;;;;6.10;3.70;;;;;;;-9.32;68.80;99257.28;4886089;29;20029;-57